Aviation Digital Data Service (ADDS)

Output produced by METARs form (0957 UTC 19 January 2019)
found at http://www.aviationweather.gov/metar/data/
 
SGES 190900Z 27005KT 9999 OVC015 22/21 Q1014
TAF SGES 190400Z 1906/2006 32003KT 9000 DZ OVC015 TX28/1919Z TN20/1909Z 
     BECMG 1908/1911 18010KT 6000 DZ OVC008 
     PROB30 1916/1918 22010KT 7000 TSRA BKN010 FEW040CB 
     BECMG 1919/1922 18008KT 9999 BKN020
       
TAF SGCO 190400Z 1906/2006 21007KT 9000 DZ OVC015 TX28/1919Z TN21/1909Z 
     BECMG 1907/1910 18008KT 6000 DZ OVC005 
     PROB30 1916/1918 22010KT 7000 TSRA BKN010 FEW040CB 
     BECMG 1921/1923 18008KT 8000 -DZRA BKN015